Time;durP1;ratioP1;P1;durP2;ratioP2;P2;SDS_P1;SDS_P2;PMS_P1;PMS_P2;Temp;Humidity;BMP_temperature;BMP_pressure;BME280_temperature;BME280_humidity;BME280_pressure;Samples;Min_cycle;Max_cycle;Signal;HPM_P1;HPM_P2
2021/08/10 00:02:37;;;;;;;2.30;2.10;;;;;;;21.59;87.17;100287.13;6244524;28;20542;-78
2021/08/10 00:05:38;;;;;;;2.60;2.00;;;;;;;21.43;88.57;100293.19;6244875;28;20042;-78
2021/08/10 00:08:39;;;;;;;2.20;2.00;;;;;;;21.43;88.16;100303.00;6227975;28;20412;-78
2021/08/10 00:11:40;;;;;;;2.20;2.00;;;;;;;21.47;87.49;100302.50;6227977;28;20038;-78
2021/08/10 00:14:41;;;;;;;3.43;2.40;;;;;;;21.49;86.77;100305.84;6211717;28;20519;-78
2021/08/10 00:17:42;;;;;;;2.80;1.80;;;;;;;21.42;86.66;100306.63;6244349;28;20435;-78
2021/08/10 00:20:43;;;;;;;3.83;1.93;;;;;;;21.52;86.18;100289.59;6244409;28;20037;-78
2021/08/10 00:23:43;;;;;;;2.13;1.90;;;;;;;21.56;85.68;100295.44;6244234;28;20053;-78
2021/08/10 00:26:44;;;;;;;3.50;2.00;;;;;;;21.53;85.22;100293.09;6245998;28;20327;-78
2021/08/10 00:29:45;;;;;;;3.70;2.20;;;;;;;21.57;85.56;100294.44;6229348;28;20419;-78
2021/08/10 00:32:47;;;;;;;3.30;1.97;;;;;;;21.56;85.21;100294.59;6232798;28;20053;-78
2021/08/10 00:35:48;;;;;;;5.18;2.22;;;;;;;21.53;84.77;100295.75;6232680;28;20121;-78
2021/08/10 00:38:49;;;;;;;3.37;2.13;;;;;;;21.49;85.39;100312.97;6249070;28;20083;-78
2021/08/10 00:41:50;;;;;;;3.67;1.90;;;;;;;21.50;86.42;100310.16;6249271;28;20045;-78
2021/08/10 00:44:50;;;;;;;2.23;2.00;;;;;;;21.46;85.78;100311.47;6249078;28;20040;-78
2021/08/10 00:47:51;;;;;;;6.93;2.00;;;;;;;21.50;84.75;100310.16;6249288;28;20136;-78
2021/08/10 00:50:52;;;;;;;8.73;2.30;;;;;;;21.47;85.47;100305.16;6249734;28;20094;-78
2021/08/10 00:53:53;;;;;;;3.43;2.00;;;;;;;21.40;86.60;100314.72;6232115;28;20080;-78
2021/08/10 00:56:54;;;;;;;2.83;1.92;;;;;;;21.31;85.84;100310.34;6232144;28;20042;-79
2021/08/10 00:59:55;;;;;;;3.35;2.05;;;;;;;21.31;87.23;100307.69;6250067;28;20049;-78
2021/08/10 01:02:56;;;;;;;2.50;2.08;;;;;;;21.26;87.68;100307.34;6215633;28;20041;-78
2021/08/10 01:05:57;;;;;;;5.93;2.10;;;;;;;21.22;87.19;100311.31;6231619;28;20045;-78
2021/08/10 01:09:13;;;;;;;2.77;2.03;;;;;;;21.18;88.36;100307.31;6249607;28;20049;-78
2021/08/10 01:12:18;;;;;;;3.60;1.98;;;;;;;21.12;88.17;100306.91;6249424;28;20045;-78
2021/08/10 01:15:22;;;;;;;2.58;1.85;;;;;;;21.00;89.51;100304.69;6249354;28;20128;-78
2021/08/10 01:18:31;;;;;;;2.20;1.98;;;;;;;21.01;87.69;100307.19;6248108;28;20072;-78
2021/08/10 01:21:39;;;;;;;2.10;1.77;;;;;;;21.07;87.96;100309.22;6231897;28;20456;-78
2021/08/10 01:25:01;;;;;;;4.38;2.03;;;;;;;21.08;87.43;100308.22;6248908;28;20053;-79
2021/08/10 01:28:40;;;;;;;3.08;2.20;;;;;;;21.13;87.83;100305.13;6247879;28;20060;-79
2021/08/10 01:31:43;;;;;;;5.50;2.25;;;;;;;21.07;88.43;100311.06;6247875;28;20041;-78
2021/08/10 01:34:47;;;;;;;5.13;2.60;;;;;;;21.02;88.19;100316.78;6215151;28;20080;-78
2021/08/10 01:37:53;;;;;;;3.47;2.22;;;;;;;20.97;87.22;100315.63;6247665;28;20124;-78
2021/08/10 01:40:54;;;;;;;6.88;2.08;;;;;;;21.01;86.88;100311.66;6247182;28;20041;-78
2021/08/10 01:43:58;;;;;;;4.80;2.25;;;;;;;20.96;86.76;100317.44;6230909;28;20045;-78
2021/08/10 01:47:00;;;;;;;6.15;2.35;;;;;;;21.04;87.36;100311.34;6247491;28;20037;-78
2021/08/10 01:50:05;;;;;;;4.82;2.10;;;;;;;21.04;86.30;100320.13;6248422;28;20065;-78
2021/08/10 01:53:08;;;;;;;2.97;2.00;;;;;;;21.04;86.05;100312.16;6248553;28;20049;-78
2021/08/10 01:56:10;;;;;;;3.47;1.92;;;;;;;21.01;86.98;100315.16;6247164;28;20045;-78
2021/08/10 01:59:11;;;;;;;4.82;2.42;;;;;;;20.98;87.99;100319.91;6214731;28;20045;-78
2021/08/10 02:02:12;;;;;;;2.80;2.13;;;;;;;20.88;87.30;100320.88;6230819;28;20164;-78
2021/08/10 02:05:15;;;;;;;5.00;1.98;;;;;;;20.88;88.40;100314.72;6230670;28;20053;-78
2021/08/10 02:08:17;;;;;;;3.08;2.30;;;;;;;20.90;87.62;100310.09;6247120;28;20056;-78
2021/08/10 02:11:20;;;;;;;2.15;1.95;;;;;;;20.92;88.02;100308.13;6246772;28;20041;-79
2021/08/10 02:14:25;;;;;;;3.55;2.10;;;;;;;20.88;88.04;100312.09;6246884;28;20076;-78
2021/08/10 02:17:25;;;;;;;3.40;2.35;;;;;;;20.82;87.69;100307.41;6246882;28;20550;-78
2021/08/10 02:20:28;;;;;;;5.17;2.30;;;;;;;20.82;87.54;100313.53;6230379;28;20042;-78
2021/08/10 02:23:32;;;;;;;3.95;2.60;;;;;;;20.85;87.32;100310.53;6230698;28;20045;-78
2021/08/10 02:26:44;;;;;;;3.42;2.20;;;;;;;20.82;87.63;100312.69;6246580;28;20041;-78
2021/08/10 02:29:48;;;;;;;3.72;2.20;;;;;;;20.81;87.96;100311.00;6246400;28;20078;-78
2021/08/10 02:32:51;;;;;;;3.80;2.15;;;;;;;20.72;87.96;100316.25;6247599;28;20045;-78
2021/08/10 02:35:55;;;;;;;5.00;2.60;;;;;;;20.67;88.38;100320.34;6246361;28;20041;-78
2021/08/10 02:39:03;;;;;;;3.13;2.20;;;;;;;20.68;87.68;100319.38;6246278;28;20045;-78
2021/08/10 02:42:05;;;;;;;7.85;2.65;;;;;;;20.65;87.56;100325.81;6246278;28;20120;-78
2021/08/10 02:45:06;;;;;;;4.88;2.75;;;;;;;20.67;88.42;100323.00;6246206;28;20049;-78
2021/08/10 02:48:07;;;;;;;6.20;2.20;;;;;;;20.62;88.60;100322.63;6213453;28;20103;-78
2021/08/10 02:51:08;;;;;;;3.23;2.10;;;;;;;20.57;89.07;100323.06;6247250;28;20038;-78
2021/08/10 02:54:09;;;;;;;2.97;2.30;;;;;;;20.56;87.98;100326.69;6247040;28;20045;-78
2021/08/10 02:57:17;;;;;;;4.78;2.42;;;;;;;20.55;88.73;100330.31;6247245;28;20041;-78
2021/08/10 03:00:17;;;;;;;5.20;2.45;;;;;;;20.58;88.29;100330.03;6246543;28;20128;-78
2021/08/10 03:03:21;;;;;;;3.30;2.33;;;;;;;20.55;88.71;100332.97;6245734;28;20087;-79
2021/08/10 03:06:23;;;;;;;10.00;2.40;;;;;;;20.42;90.76;100327.19;6245091;28;20056;-78
2021/08/10 03:09:25;;;;;;;4.68;2.20;;;;;;;20.38;89.88;100325.84;6245567;28;20037;-78
2021/08/10 03:12:29;;;;;;;3.55;2.60;;;;;;;20.32;90.18;100324.63;6245651;28;20061;-78
2021/08/10 03:15:33;;;;;;;6.22;2.58;;;;;;;20.33;90.32;100327.13;6246567;28;20045;-78
2021/08/10 03:18:36;;;;;;;4.35;2.47;;;;;;;20.27;90.84;100330.38;6246552;28;20182;-78
2021/08/10 03:21:38;;;;;;;4.35;2.55;;;;;;;20.16;90.91;100329.75;6245247;28;20087;-78
2021/08/10 03:24:41;;;;;;;6.03;2.55;;;;;;;20.22;90.62;100334.44;6245165;28;20057;-79
2021/08/10 03:27:43;;;;;;;3.67;2.58;;;;;;;20.21;90.74;100327.50;6245226;28;20087;-78
2021/08/10 03:30:45;;;;;;;3.33;2.60;;;;;;;20.25;90.12;100332.34;6245007;28;20037;-78
2021/08/10 03:33:47;;;;;;;5.30;2.38;;;;;;;20.32;90.08;100321.97;6228670;28;20057;-78
2021/08/10 03:36:49;;;;;;;4.10;2.60;;;;;;;20.37;88.62;100332.13;6244898;28;20068;-78
2021/08/10 03:39:50;;;;;;;4.03;2.58;;;;;;;20.39;88.02;100324.88;6228422;28;20488;-78
2021/08/10 03:42:51;;;;;;;6.80;2.93;;;;;;;20.36;89.48;100319.84;6220388;28;20053;-78
2021/08/10 03:45:53;;;;;;;3.35;2.60;;;;;;;20.28;89.63;100323.25;6220363;28;20053;-78
2021/08/10 03:48:53;;;;;;;;;;;;;;;20.23;90.47;100330.81;6220524;28;20054;-78
2021/08/10 03:51:54;;;;;;;4.82;2.58;;;;;;;20.30;90.13;100322.13;6221645;28;19922;-78
2021/08/10 03:54:55;;;;;;;5.72;2.70;;;;;;;20.23;91.49;100331.66;6203955;28;20050;-78
2021/08/10 03:57:57;;;;;;;4.30;2.77;;;;;;;20.20;90.67;100339.91;6204142;28;20447;-78
2021/08/10 04:01:01;;;;;;;4.80;2.97;;;;;;;20.24;89.57;100343.94;6221739;28;20088;-78
2021/08/10 04:04:03;;;;;;;4.22;2.58;;;;;;;20.23;91.14;100347.53;6220882;28;20050;-78
2021/08/10 04:07:07;;;;;;;4.88;2.60;;;;;;;20.24;91.62;100345.72;6219985;28;20057;-78
2021/08/10 04:10:09;;;;;;;4.40;2.80;;;;;;;20.22;90.74;100345.91;6220189;28;20048;-79
2021/08/10 04:13:11;;;;;;;3.95;2.60;;;;;;;20.24;91.81;100351.03;6220128;28;20056;-78
2021/08/10 04:16:15;;;;;;;4.80;2.73;;;;;;;20.27;90.63;100348.09;6203822;28;20046;-79
2021/08/10 04:19:19;;;;;;;3.40;2.55;;;;;;;20.33;90.88;100350.16;6244472;28;20292;-78
2021/08/10 04:22:20;;;;;;;3.92;2.70;;;;;;;20.37;89.83;100364.75;6244536;28;20069;-78
2021/08/10 04:25:21;;;;;;;6.05;2.65;;;;;;;20.45;88.99;100353.41;6227943;28;20041;-78
2021/08/10 04:28:22;;;;;;;8.97;2.70;;;;;;;20.48;89.25;100359.22;6228081;28;20041;-78
2021/08/10 04:31:23;;;;;;;3.83;2.50;;;;;;;20.55;88.68;100364.78;6211708;28;20045;-78
2021/08/10 04:34:23;;;;;;;3.23;2.80;;;;;;;20.60;87.93;100369.66;6227979;28;20121;-78
2021/08/10 04:37:24;;;;;;;3.30;2.50;;;;;;;20.65;88.26;100373.53;6244236;28;20042;-78
2021/08/10 04:40:28;;;;;;;4.33;2.80;;;;;;;20.62;87.48;100373.81;6227963;28;20041;-79
2021/08/10 04:43:28;;;;;;;5.50;2.78;;;;;;;20.60;88.67;100372.31;6212179;28;20540;-78
2021/08/10 04:46:30;;;;;;;7.17;2.73;;;;;;;20.59;89.04;100383.88;6227772;28;20037;-78
2021/08/10 04:49:30;;;;;;;3.58;2.60;;;;;;;20.57;87.64;100383.16;6245814;28;20196;-78
2021/08/10 04:52:31;;;;;;;3.70;2.50;;;;;;;20.64;87.92;100392.22;6245024;28;20073;-78
2021/08/10 04:55:32;;;;;;;3.37;2.30;;;;;;;20.66;87.84;100382.31;6245473;28;20088;-78
2021/08/10 04:58:32;;;;;;;4.73;2.73;;;;;;;20.73;87.95;100384.22;6227738;28;20054;-78
2021/08/10 05:01:33;;;;;;;4.10;2.70;;;;;;;20.75;87.63;100377.91;6243803;28;20044;-78
2021/08/10 05:04:34;;;;;;;4.40;2.70;;;;;;;20.70;87.26;100387.16;6244094;28;20468;-78
2021/08/10 05:07:35;;;;;;;3.47;2.53;;;;;;;20.79;87.74;100376.63;6227427;28;20065;-78
2021/08/10 05:10:36;;;;;;;5.33;2.60;;;;;;;20.77;86.95;100378.59;6227520;28;20833;-78
2021/08/10 05:13:37;;;;;;;4.60;2.33;;;;;;;20.80;86.69;100373.81;6211274;28;20046;-78
2021/08/10 05:16:38;;;;;;;6.57;2.70;;;;;;;20.79;87.48;100374.81;6246636;28;20051;-78
2021/08/10 05:19:39;;;;;;;4.03;2.33;;;;;;;20.87;87.40;100374.88;6248758;28;20033;-78
2021/08/10 05:22:41;;;;;;;3.90;2.30;;;;;;;20.96;87.30;100380.25;6249197;28;20038;-78
2021/08/10 05:25:41;;;;;;;;;;;;;;;20.93;87.53;100368.97;6248747;28;20041;-78
2021/08/10 05:28:42;;;;;;;3.70;2.30;;;;;;;21.03;86.44;100370.69;6247822;28;20395;-78
2021/08/10 05:31:44;;;;;;;5.50;2.30;;;;;;;21.07;84.80;100369.41;6247891;28;20041;-78
2021/08/10 05:34:45;;;;;;;2.45;2.17;;;;;;;21.19;85.74;100376.13;6247886;28;20189;-78
2021/08/10 05:37:46;;;;;;;4.47;2.60;;;;;;;21.22;85.51;100373.16;6222604;28;20042;-79
2021/08/10 05:40:46;;;;;;;4.17;2.27;;;;;;;21.32;86.41;100373.06;6223096;28;20077;-79
2021/08/10 05:43:48;;;;;;;7.07;2.27;;;;;;;21.37;82.52;100375.25;6206709;28;20046;-80
2021/08/10 05:46:49;;;;;;;9.70;2.40;;;;;;;21.39;86.83;100376.75;6223016;28;20045;-81
2021/08/10 05:49:50;;;;;;;3.75;2.50;;;;;;;21.42;83.33;100378.28;6222671;28;20042;-83
2021/08/10 05:52:52;;;;;;;4.50;2.07;;;;;;;21.44;86.67;100366.53;6206505;28;20116;-81
2021/08/10 05:55:52;;;;;;;4.28;2.45;;;;;;;21.54;84.33;100374.41;6222951;28;20042;-86
2021/08/10 05:58:53;;;;;;;3.30;2.23;;;;;;;21.56;87.37;100375.09;6239616;28;20037;-83
2021/08/10 06:01:54;;;;;;;3.23;2.27;;;;;;;21.61;82.11;100377.25;6223642;28;20135;-80
2021/08/10 06:04:54;;;;;;;2.83;2.17;;;;;;;21.67;81.27;100377.47;6206350;28;20052;-81
2021/08/10 06:07:55;;;;;;;4.90;2.77;;;;;;;21.69;85.90;100380.78;6206021;28;20049;-82
2021/08/10 06:10:56;;;;;;;5.77;2.27;;;;;;;21.84;81.21;100382.84;6222479;28;20038;-81
2021/08/10 06:13:57;;;;;;;5.57;2.53;;;;;;;21.87;82.29;100380.72;6206524;28;20045;-80
2021/08/10 06:16:57;;;;;;;4.10;2.13;;;;;;;21.91;84.12;100382.06;6206025;28;20034;-83
2021/08/10 06:19:58;;;;;;;2.20;2.00;;;;;;;21.99;82.94;100373.31;6206199;28;20048;-82
2021/08/10 06:23:01;;;;;;;4.17;2.43;;;;;;;22.03;82.62;100377.31;6222233;28;20088;-78
2021/08/10 06:26:01;;;;;;;3.35;2.03;;;;;;;22.09;79.29;100373.16;6238600;28;20129;-78
2021/08/10 06:29:02;;;;;;;2.30;2.10;;;;;;;22.08;80.18;100379.47;6221953;28;20046;-78
2021/08/10 06:32:03;;;;;;;3.20;2.27;;;;;;;22.11;80.68;100374.69;6237014;28;20099;-78
2021/08/10 06:35:04;;;;;;;2.85;2.08;;;;;;;22.18;80.61;100374.03;6231337;28;20282;-78
2021/08/10 06:38:05;;;;;;;4.55;2.53;;;;;;;22.25;81.97;100380.38;6249374;28;20389;-80
2021/08/10 06:41:06;;;;;;;797.47;67.33;;;;;;;22.34;84.19;100368.78;6232148;28;20037;-74
2021/08/10 06:44:07;;;;;;;2.47;2.20;;;;;;;22.45;80.76;100376.47;6247816;28;20038;-75
2021/08/10 06:47:07;;;;;;;7.40;2.30;;;;;;;22.46;80.28;100375.44;6230390;28;20048;-73
2021/08/10 06:50:09;;;;;;;4.83;2.30;;;;;;;22.59;78.95;100382.13;6233791;28;20037;-74
2021/08/10 06:53:10;;;;;;;6.95;2.50;;;;;;;22.58;80.30;100380.47;6248558;28;20041;-74
2021/08/10 06:56:11;;;;;;;5.53;2.10;;;;;;;22.63;79.63;100372.81;6247385;28;20041;-74
2021/08/10 06:59:12;;;;;;;4.07;2.20;;;;;;;22.66;78.21;100375.97;6247868;28;20048;-74
2021/08/10 07:02:13;;;;;;;5.30;2.27;;;;;;;22.73;77.05;100369.03;6246742;28;20041;-74
2021/08/10 07:05:15;;;;;;;3.63;2.17;;;;;;;22.74;79.00;100361.88;6212903;28;20041;-74
2021/08/10 07:08:15;;;;;;;108.00;6.70;;;;;;;22.76;85.81;100364.38;6245312;28;20516;-74
2021/08/10 07:11:16;;;;;;;5.37;2.40;;;;;;;22.79;80.61;100369.34;6246495;28;20072;-75
2021/08/10 07:14:17;;;;;;;2.97;2.10;;;;;;;22.83;84.63;100365.38;6246615;28;20535;-74
2021/08/10 07:17:18;;;;;;;3.15;2.20;;;;;;;22.96;82.49;100364.84;6245547;28;20065;-74
2021/08/10 07:20:18;;;;;;;3.20;2.00;;;;;;;23.01;85.64;100367.88;6245449;28;20038;-76
2021/08/10 07:23:20;;;;;;;6.03;2.33;;;;;;;23.10;82.26;100364.22;6245174;28;20041;-78
2021/08/10 07:26:20;;;;;;;11.35;2.35;;;;;;;23.05;81.93;100367.38;6245373;28;20042;-78
2021/08/10 07:29:22;;;;;;;4.30;2.23;;;;;;;23.07;78.39;100367.22;6246705;28;20042;-77
2021/08/10 07:32:23;;;;;;;2.90;1.95;;;;;;;23.11;79.54;100366.72;6245902;28;20042;-77
2021/08/10 07:35:23;;;;;;;4.83;2.30;;;;;;;23.15;81.05;100367.22;6212672;28;20046;-78
2021/08/10 07:38:24;;;;;;;6.03;2.70;;;;;;;23.18;80.87;100371.38;6243995;28;20579;-77
2021/08/10 07:41:25;;;;;;;5.10;2.10;;;;;;;23.23;79.22;100372.53;6228478;28;20042;-77
2021/08/10 07:44:26;;;;;;;5.95;2.25;;;;;;;23.30;79.12;100378.00;6245965;28;20488;-76
2021/08/10 07:47:26;;;;;;;14.47;2.57;;;;;;;23.37;78.31;100370.19;6228602;28;20160;-77
2021/08/10 07:50:27;;;;;;;6.00;2.30;;;;;;;23.40;78.05;100368.00;6228535;28;20099;-77
2021/08/10 07:53:28;;;;;;;4.57;2.28;;;;;;;23.49;77.45;100374.16;6246105;28;20488;-76
2021/08/10 07:56:29;;;;;;;5.23;2.10;;;;;;;23.51;76.35;100370.34;6227823;28;20128;-78
2021/08/10 07:59:30;;;;;;;3.27;1.83;;;;;;;23.55;75.93;100370.81;6244812;28;20377;-78
2021/08/10 08:02:30;;;;;;;4.90;2.00;;;;;;;23.63;78.88;100372.63;6245894;28;20336;-77
2021/08/10 08:05:32;;;;;;;2.50;2.00;;;;;;;23.71;77.87;100369.94;6228074;28;20073;-77
2021/08/10 08:08:32;;;;;;;3.90;2.30;;;;;;;23.78;75.87;100373.59;6244359;28;20058;-78
2021/08/10 08:11:33;;;;;;;4.77;2.00;;;;;;;23.86;74.32;100373.56;6244708;28;20042;-78
2021/08/10 08:14:34;;;;;;;4.27;2.10;;;;;;;23.95;74.72;100377.03;6245892;28;20049;-79
2021/08/10 08:17:35;;;;;;;4.72;2.00;;;;;;;24.03;73.25;100379.69;6244790;28;20492;-79
2021/08/10 08:20:36;;;;;;;2.50;2.30;;;;;;;24.08;73.26;100369.31;6245755;28;20049;-81
2021/08/10 08:23:38;;;;;;;2.72;2.20;;;;;;;24.16;73.61;100368.44;6248131;28;20477;-83
2021/08/10 08:26:38;;;;;;;3.70;1.83;;;;;;;24.28;71.51;100368.91;6245867;28;20053;-79
2021/08/10 08:29:39;;;;;;;6.63;1.90;;;;;;;24.30;72.06;100369.56;6244299;28;20084;-80
2021/08/10 08:32:40;;;;;;;2.53;1.60;;;;;;;24.34;70.24;100365.53;6228078;28;20395;-80
2021/08/10 08:35:41;;;;;;;3.60;2.17;;;;;;;24.35;70.34;100364.50;6244507;28;20045;-76
2021/08/10 08:38:41;;;;;;;2.33;2.07;;;;;;;24.37;71.71;100361.66;6244786;28;20503;-84
2021/08/10 08:41:44;;;;;;;4.07;2.30;;;;;;;24.38;72.27;100358.84;6244464;28;20045;-88
2021/08/10 08:44:45;;;;;;;2.33;1.77;;;;;;;24.40;73.73;100359.50;6244089;28;20046;-90
2021/08/10 08:47:53;;;;;;;5.83;2.00;;;;;;;24.45;73.80;100364.28;6227756;28;20496;-87
2021/08/10 08:50:55;;;;;;;2.55;1.92;;;;;;;24.51;71.75;100355.59;6245581;28;20064;-87
2021/08/10 08:53:56;;;;;;;6.25;2.00;;;;;;;24.50;72.04;100359.28;6249067;28;20140;-87
2021/08/10 08:56:57;;;;;;;5.80;1.90;;;;;;;24.60;75.48;100359.03;6249413;28;20503;-89
2021/08/10 08:59:58;;;;;;;4.03;2.35;;;;;;;24.65;70.18;100349.50;6249262;28;20283;-86
2021/08/10 09:02:59;;;;;;;2.17;1.98;;;;;;;24.71;71.59;100355.97;6248874;28;20037;-88
2021/08/10 09:06:00;;;;;;;4.30;2.00;;;;;;;24.73;72.43;100348.63;6249711;28;20037;-81
2021/08/10 09:09:33;;;;;;;4.27;2.30;;;;;;;24.76;73.17;100350.09;6232093;28;20502;-84
2021/08/10 09:12:48;;;;;;;5.20;2.25;;;;;;;24.80;71.93;100354.06;6227011;28;20053;-83
2021/08/10 09:15:50;;;;;;;5.75;2.20;;;;;;;24.88;70.68;100346.00;6249966;28;20079;-82
2021/08/10 09:18:51;;;;;;;3.85;2.30;;;;;;;24.98;68.70;100346.56;6223980;28;20112;-82
2021/08/10 09:21:52;;;;;;;2.63;1.92;;;;;;;24.98;68.99;100351.91;6224961;28;20448;-83
2021/08/10 09:25:05;;;;;;;8.98;2.20;;;;;;;25.01;67.90;100340.84;6207329;28;20123;-82
2021/08/10 09:28:09;;;;;;;6.32;2.33;;;;;;;25.10;68.97;100345.13;6224598;28;20053;-80
2021/08/10 09:31:29;;;;;;;3.42;2.42;;;;;;;25.15;69.11;100347.25;6224595;28;20104;-81
2021/08/10 09:34:30;;;;;;;5.85;2.33;;;;;;;25.20;68.23;100342.16;6223326;28;20053;-82
2021/08/10 09:37:31;;;;;;;4.00;2.38;;;;;;;25.23;69.14;100339.19;6223427;28;20048;-80
2021/08/10 09:40:38;;;;;;;6.32;2.30;;;;;;;25.34;65.10;100333.38;6241843;28;20041;-81
2021/08/10 09:43:40;;;;;;;4.50;2.13;;;;;;;25.38;65.37;100333.03;6247604;28;20042;-81
2021/08/10 09:46:49;;;;;;;2.80;2.17;;;;;;;25.39;64.67;100337.34;6231422;28;20346;-81
2021/08/10 09:49:50;;;;;;;5.68;2.30;;;;;;;25.40;64.85;100328.34;6248713;28;20447;-84
2021/08/10 09:52:50;;;;;;;5.80;2.50;;;;;;;25.51;66.58;100334.06;6247425;28;20587;-79
2021/08/10 09:55:53;;;;;;;4.43;2.30;;;;;;;25.54;65.47;100328.31;6248674;28;20064;-81
2021/08/10 09:58:58;;;;;;;4.25;2.72;;;;;;;25.63;66.27;100328.22;6248822;28;20048;-83
2021/08/10 10:01:59;;;;;;;5.07;2.20;;;;;;;25.61;66.34;100333.75;6249768;28;20041;-79
2021/08/10 10:05:00;;;;;;;2.90;2.25;;;;;;;25.43;66.62;100331.47;6248192;28;20048;-78
2021/08/10 10:08:16;;;;;;;3.50;2.60;;;;;;;25.34;66.19;100338.72;6247952;28;20049;-78
2021/08/10 10:11:17;;;;;;;2.35;2.15;;;;;;;25.43;67.02;100328.81;6248301;28;20052;-78
2021/08/10 10:14:20;;;;;;;6.15;2.30;;;;;;;25.65;65.70;100329.69;6246831;28;20049;-78
2021/08/10 10:17:23;;;;;;;3.13;2.20;;;;;;;25.75;67.13;100332.09;6248095;28;20052;-79
2021/08/10 10:20:24;;;;;;;3.35;2.17;;;;;;;25.82;67.38;100329.50;6247974;28;20033;-79
2021/08/10 10:23:27;;;;;;;6.97;2.40;;;;;;;25.87;66.80;100332.47;6230321;28;20044;-81
2021/08/10 10:26:30;;;;;;;3.60;2.30;;;;;;;25.96;63.11;100327.84;6247764;28;20061;-79
2021/08/10 10:29:31;;;;;;;4.40;2.17;;;;;;;26.01;65.24;100323.63;6246651;28;20396;-79
2021/08/10 10:32:32;;;;;;;4.20;2.15;;;;;;;26.00;65.67;100323.78;6246420;28;20045;-83
2021/08/10 10:35:33;;;;;;;8.15;2.22;;;;;;;26.02;66.01;100321.75;6246494;28;20068;-79
2021/08/10 10:38:34;;;;;;;11.05;2.35;;;;;;;25.97;64.25;100316.97;6246458;28;20091;-79
2021/08/10 10:41:36;;;;;;;5.82;2.42;;;;;;;26.04;64.71;100317.88;6229883;28;20049;-80
2021/08/10 10:44:44;;;;;;;3.10;2.35;;;;;;;26.20;62.80;100314.16;6229872;28;20073;-78
2021/08/10 10:47:45;;;;;;;3.10;2.40;;;;;;;26.07;65.11;100314.84;6246188;28;20045;-79
2021/08/10 10:51:01;;;;;;;3.40;2.70;;;;;;;26.26;62.04;100313.38;6229731;28;20124;-82
2021/08/10 10:54:28;;;;;;;2.65;2.10;;;;;;;26.38;63.98;100313.72;6251672;28;20048;-79
2021/08/10 10:57:28;;;;;;;5.90;2.20;;;;;;;26.60;64.36;100313.75;6254774;28;20175;-80
2021/08/10 11:00:31;;;;;;;3.80;2.37;;;;;;;26.54;64.07;100308.13;6253852;28;20461;-78
2021/08/10 11:03:32;;;;;;;6.30;2.63;;;;;;;26.59;64.86;100304.88;6230855;28;20041;-78
2021/08/10 11:06:34;;;;;;;4.93;2.30;;;;;;;26.61;65.44;100310.88;6229957;28;20455;-81
2021/08/10 11:09:35;;;;;;;;;;;;;;;26.72;63.24;100306.84;6229699;28;20049;-77
2021/08/10 11:12:46;;;;;;;6.40;2.47;;;;;;;26.82;62.27;100309.19;6245390;28;19948;-82
2021/08/10 11:15:46;;;;;;;3.67;2.20;;;;;;;26.99;60.94;100305.19;6245403;28;20073;-77
2021/08/10 11:18:48;;;;;;;3.83;2.30;;;;;;;26.91;59.91;100305.34;6245586;28;20065;-76
2021/08/10 11:22:14;;;;;;;10.57;2.53;;;;;;;26.64;63.35;100302.44;6229224;28;20484;-78
2021/08/10 11:25:23;;;;;;;4.25;2.30;;;;;;;26.72;59.32;100299.63;6245235;28;20037;-78
2021/08/10 11:28:32;;;;;;;2.72;2.20;;;;;;;27.05;57.58;100303.59;6245500;28;20048;-78
2021/08/10 11:31:34;;;;;;;4.63;2.17;;;;;;;27.25;56.84;100295.72;6246491;28;20038;-77
2021/08/10 11:34:37;;;;;;;2.95;2.42;;;;;;;27.28;58.12;100303.38;6246595;28;20052;-78
2021/08/10 11:37:38;;;;;;;7.00;2.30;;;;;;;27.44;58.76;100294.19;6246416;28;20041;-78
2021/08/10 11:40:51;;;;;;;3.85;2.30;;;;;;;27.91;57.82;100293.38;6228773;28;20148;-77
2021/08/10 11:43:54;;;;;;;4.53;2.13;;;;;;;29.71;50.45;100300.59;6244802;28;20569;-78
2021/08/10 11:46:55;;;;;;;6.30;2.13;;;;;;;32.63;41.41;100293.34;6228959;28;20080;-77
2021/08/10 11:49:55;;;;;;;6.88;2.25;;;;;;;35.52;32.77;100287.53;6228645;28;20496;-77
2021/08/10 11:52:56;;;;;;;3.30;1.77;;;;;;;37.58;27.88;100280.00;6228544;28;20053;-78
2021/08/10 11:55:57;;;;;;;2.25;1.85;;;;;;;37.84;26.36;100299.09;6244832;28;20077;-77
2021/08/10 11:58:59;;;;;;;3.55;1.80;;;;;;;39.69;25.79;100289.59;6245867;28;20084;-79
2021/08/10 12:02:01;;;;;;;6.78;1.70;;;;;;;41.35;24.16;100284.31;6228355;28;20476;-76
2021/08/10 12:05:06;;;;;;;3.28;1.95;;;;;;;40.35;24.77;100305.84;6244479;28;20076;-76
2021/08/10 12:08:07;;;;;;;4.68;1.35;;;;;;;41.00;22.83;100291.81;6244436;28;20412;-76
2021/08/10 12:11:10;;;;;;;4.30;1.88;;;;;;;41.25;23.11;100291.56;6228067;28;20499;-76
2021/08/10 12:14:31;;;;;;;3.22;1.50;;;;;;;40.26;22.56;100297.44;6228225;28;20471;-73
2021/08/10 12:17:32;;;;;;;2.13;1.70;;;;;;;42.51;20.51;100285.63;6245593;28;20061;-73
2021/08/10 12:20:33;;;;;;;5.43;1.45;;;;;;;43.55;19.01;100280.53;6244370;28;20038;-76
2021/08/10 12:23:42;;;;;;;7.88;1.42;;;;;;;43.94;19.23;100283.78;6210856;28;20041;-77
2021/08/10 12:26:50;;;;;;;3.80;1.30;;;;;;;43.69;17.39;100276.97;6250477;28;20063;-77
2021/08/10 12:29:51;;;;;;;8.82;1.30;;;;;;;44.10;17.45;100273.25;6250439;28;20053;-76
2021/08/10 12:32:52;;;;;;;5.78;1.33;;;;;;;41.90;19.65;100272.88;6249493;28;20120;-78
2021/08/10 12:36:01;;;;;;;2.60;1.30;;;;;;;38.20;23.48;100261.88;6249152;28;20150;-76
2021/08/10 12:39:02;;;;;;;4.00;1.35;;;;;;;37.25;26.30;100259.41;6249723;28;20037;-74
2021/08/10 12:42:04;;;;;;;5.22;1.40;;;;;;;36.01;27.91;100257.69;6249908;28;20042;-74
2021/08/10 12:45:05;;;;;;;3.17;1.52;;;;;;;35.08;32.57;100253.09;6249782;28;20456;-74
2021/08/10 12:48:35;;;;;;;7.72;1.67;;;;;;;34.43;31.40;100246.44;6250696;28;20470;-78
2021/08/10 12:51:57;;;;;;;4.18;1.50;;;;;;;33.95;31.09;100242.34;6247960;28;20053;-75
2021/08/10 12:54:59;;;;;;;2.40;1.30;;;;;;;33.31;31.11;100243.28;6249758;28;20141;-77
2021/08/10 12:58:01;;;;;;;4.07;1.40;;;;;;;32.99;31.30;100245.56;6248575;28;20045;-77
2021/08/10 13:01:06;;;;;;;2.17;1.50;;;;;;;32.84;33.30;100242.50;6218471;28;20050;-77
2021/08/10 13:04:08;;;;;;;2.38;1.55;;;;;;;32.53;33.23;100225.56;6224893;28;20046;-77
2021/08/10 13:07:16;;;;;;;1.98;1.60;;;;;;;32.38;36.71;100215.22;6245974;28;20534;-78
2021/08/10 13:10:28;;;;;;;4.15;1.67;;;;;;;32.13;35.73;100213.56;6246292;28;20211;-77
2021/08/10 13:13:30;;;;;;;4.65;1.90;;;;;;;32.06;34.37;100209.31;6249447;28;20064;-77
2021/08/10 13:16:34;;;;;;;4.03;1.98;;;;;;;31.93;35.87;100213.00;6248338;28;20049;-77
2021/08/10 13:19:34;;;;;;;4.70;1.73;;;;;;;31.80;35.50;100205.13;6248130;28;20496;-76
2021/08/10 13:22:52;;;;;;;2.92;1.58;;;;;;;31.63;36.69;100200.38;6248063;28;20041;-76
2021/08/10 13:25:55;;;;;;;3.78;1.75;;;;;;;31.54;36.67;100193.66;6247493;28;20049;-77
2021/08/10 13:28:56;;;;;;;7.72;1.77;;;;;;;31.50;38.83;100184.38;6225990;28;20042;-76
2021/08/10 13:31:58;;;;;;;5.30;1.70;;;;;;;31.47;39.95;100179.44;6223137;28;20402;-76
2021/08/10 13:34:58;;;;;;;3.55;1.73;;;;;;;31.42;39.50;100173.88;6223197;28;20045;-76
2021/08/10 13:37:59;;;;;;;;;;;;;;;31.30;37.05;100171.97;6223921;28;20049;-76
2021/08/10 13:41:00;;;;;;;3.20;2.03;;;;;;;31.23;36.55;100171.22;6223027;28;19921;-76
2021/08/10 13:44:02;;;;;;;;;;;;;;;31.10;36.11;100171.38;6223324;28;20053;-76
2021/08/10 13:47:03;;;;;;;4.80;1.80;;;;;;;31.07;37.03;100161.03;6206556;28;19921;-76
2021/08/10 13:50:04;;;;;;;;;;;;;;;31.00;36.83;100149.53;6223399;28;20505;-77
2021/08/10 13:53:06;;;;;;;4.43;2.08;;;;;;;30.99;36.80;100154.13;6224017;28;19929;-77
2021/08/10 13:56:07;;;;;;;3.67;1.80;;;;;;;30.89;38.60;100143.84;6222745;28;20049;-78
2021/08/10 13:59:08;;;;;;;;;;;;;;;30.75;37.92;100146.91;6224699;28;20049;-76
2021/08/10 14:02:09;;;;;;;2.58;2.05;;;;;;;30.70;39.14;100140.31;6222444;28;19921;-76
2021/08/10 14:05:11;;;;;;;;;;;;;;;30.63;38.59;100138.72;6206483;28;20096;-76
2021/08/10 14:08:12;;;;;;;;;;;;;;;30.65;39.35;100139.34;6224234;28;19921;-76
2021/08/10 14:11:13;;;;;;;2.75;1.85;;;;;;;30.60;39.48;100134.63;6222310;28;19921;-75
2021/08/10 14:14:14;;;;;;;3.10;2.13;;;;;;;30.56;37.87;100133.44;6206187;28;20042;-76